createdAt,value
2023-01-21T00:01:20.716Z,18.70
2023-01-21T00:03:49.127Z,20.30
2023-01-21T00:06:17.887Z,18.00
2023-01-21T00:08:46.174Z,20.10
2023-01-21T00:11:15.960Z,20.20
2023-01-21T00:13:44.994Z,17.40
2023-01-21T00:16:14.060Z,15.10
2023-01-21T00:18:42.578Z,16.60
2023-01-21T00:21:10.969Z,16.20
2023-01-21T00:23:40.047Z,16.80
2023-01-21T00:26:12.127Z,15.30
2023-01-21T00:28:44.928Z,17.10
2023-01-21T00:31:13.933Z,19.30
2023-01-21T00:33:43.306Z,16.90
2023-01-21T00:36:14.009Z,16.40
2023-01-21T00:38:42.223Z,17.30
2023-01-21T00:41:13.104Z,14.20
2023-01-21T00:43:42.688Z,17.60
2023-01-21T00:46:11.940Z,16.60
2023-01-21T00:48:40.711Z,17.00
2023-01-21T00:51:10.185Z,16.80
2023-01-21T00:53:42.023Z,16.70
2023-01-21T00:56:12.170Z,19.70
2023-01-21T00:58:43.510Z,21.40
2023-01-21T01:01:18.030Z,16.20
2023-01-21T01:03:48.069Z,20.50
2023-01-21T01:06:25.159Z,18.50
2023-01-21T01:08:58.049Z,17.30
2023-01-21T01:11:27.842Z,20.00
2023-01-21T01:13:56.754Z,18.60
2023-01-21T01:16:25.062Z,18.40
2023-01-21T01:18:53.520Z,17.30
2023-01-21T01:21:22.534Z,17.90
2023-01-21T01:23:52.460Z,18.90
2023-01-21T01:26:22.318Z,19.90
2023-01-21T01:28:51.155Z,17.20
2023-01-21T01:31:21.217Z,16.20
2023-01-21T01:33:49.674Z,21.10
2023-01-21T01:36:23.804Z,18.50
2023-01-21T01:38:53.694Z,20.00
2023-01-21T01:41:24.797Z,21.70
2023-01-21T01:44:02.237Z,23.30
2023-01-21T01:46:36.549Z,20.70
2023-01-21T01:49:17.317Z,23.40
2023-01-21T01:51:54.401Z,18.10
2023-01-21T01:54:28.822Z,19.70
2023-01-21T01:57:01.653Z,22.80
2023-01-21T01:59:32.144Z,19.00
2023-01-21T02:02:06.859Z,21.00
2023-01-21T02:04:45.386Z,14.90
2023-01-21T02:07:15.521Z,20.90
2023-01-21T02:09:43.793Z,26.10
2023-01-21T02:12:12.687Z,21.80
2023-01-21T02:14:44.943Z,19.90
2023-01-21T02:17:35.253Z,26.00
2023-01-21T02:20:25.132Z,18.80
2023-01-21T02:23:12.644Z,21.50
2023-01-21T02:25:53.715Z,25.90
2023-01-21T02:28:50.650Z,24.20
2023-01-21T02:31:19.138Z,33.50
2023-01-21T02:34:29.374Z,25.00
2023-01-21T02:37:32.959Z,28.20
2023-01-21T02:40:06.267Z,29.30
2023-01-21T02:42:50.922Z,21.90
2023-01-21T02:45:44.679Z,26.20
2023-01-21T02:48:25.239Z,27.40
2023-01-21T02:50:54.803Z,25.90
2023-01-21T02:53:31.215Z,21.60
2023-01-21T02:56:05.544Z,23.80
2023-01-21T02:58:38.444Z,21.90
2023-01-21T03:01:14.009Z,26.30
2023-01-21T03:04:00.671Z,27.30
2023-01-21T03:06:49.214Z,21.70
2023-01-21T03:09:17.712Z,19.60
2023-01-21T03:11:56.891Z,24.70
2023-01-21T03:15:09.324Z,20.30
2023-01-21T03:18:04.212Z,26.10
2023-01-21T03:20:42.527Z,20.70
2023-01-21T03:23:16.558Z,20.80
2023-01-21T03:25:47.278Z,21.20
2023-01-21T03:28:21.797Z,22.60
2023-01-21T03:30:59.310Z,18.60
2023-01-21T03:33:30.129Z,22.80
2023-01-21T03:36:06.754Z,23.40
2023-01-21T03:38:42.171Z,21.50
2023-01-21T03:41:28.282Z,21.10
2023-01-21T03:43:56.625Z,25.20
2023-01-21T03:46:38.312Z,20.50
2023-01-21T03:49:19.317Z,18.80
2023-01-21T03:51:52.069Z,20.80
2023-01-21T03:54:20.553Z,20.10
2023-01-21T03:56:48.983Z,22.10
2023-01-21T03:59:17.420Z,8.90
2023-01-21T04:01:45.705Z,12.10
2023-01-21T04:04:14.194Z,5.40
2023-01-21T04:06:42.884Z,4.50
2023-01-21T04:09:11.591Z,6.90
2023-01-21T04:11:39.855Z,8.20
2023-01-21T04:14:08.850Z,10.70
2023-01-21T04:16:37.266Z,3.40
2023-01-21T04:19:05.521Z,1.60
2023-01-21T04:21:33.902Z,2.00
2023-01-21T04:24:02.906Z,2.40
2023-01-21T04:26:31.705Z,3.40
2023-01-21T04:29:00.284Z,1.30
2023-01-21T04:31:28.715Z,4.70
2023-01-21T04:33:56.994Z,2.50
2023-01-21T04:36:25.128Z,3.20
2023-01-21T04:38:53.444Z,1.60
2023-01-21T04:41:23.859Z,5.90
2023-01-21T04:43:53.662Z,1.60
2023-01-21T04:46:22.554Z,2.60
2023-01-21T04:48:50.959Z,2.60
2023-01-21T04:51:19.375Z,2.30
2023-01-21T04:53:47.707Z,1.70
2023-01-21T04:56:15.894Z,1.80
2023-01-21T04:58:44.381Z,2.00
2023-01-21T05:01:12.901Z,2.60
2023-01-21T05:03:41.256Z,1.90
2023-01-21T05:06:09.850Z,1.90
2023-01-21T05:08:38.338Z,5.50
2023-01-21T05:11:12.540Z,2.90
2023-01-21T05:13:40.718Z,2.80
2023-01-21T05:16:10.270Z,3.10
2023-01-21T05:18:39.023Z,3.70
2023-01-21T05:21:08.152Z,3.70
2023-01-21T05:23:36.413Z,5.00
2023-01-21T05:26:04.694Z,3.80
2023-01-21T05:28:33.906Z,3.70
2023-01-21T05:31:03.800Z,3.20
2023-01-21T05:33:34.242Z,3.20
2023-01-21T05:36:03.953Z,6.00
2023-01-21T05:38:32.445Z,3.60
2023-01-21T05:41:02.671Z,3.80
2023-01-21T05:43:31.266Z,3.30
2023-01-21T05:45:59.655Z,3.60
2023-01-21T05:48:29.681Z,11.10
2023-01-21T05:50:58.893Z,4.30
2023-01-21T05:53:27.702Z,4.70
2023-01-21T05:55:57.181Z,5.00
2023-01-21T05:58:26.390Z,6.20
2023-01-21T06:00:56.603Z,4.90
2023-01-21T06:03:26.014Z,5.70
2023-01-21T06:05:54.390Z,5.40
2023-01-21T06:08:23.704Z,6.70
2023-01-21T06:10:56.341Z,9.50
2023-01-21T06:13:25.074Z,7.60
2023-01-21T06:15:57.287Z,6.00
2023-01-21T06:18:25.743Z,6.60
2023-01-21T06:20:54.218Z,7.50
2023-01-21T06:23:22.707Z,5.90
2023-01-21T06:25:51.090Z,5.80
2023-01-21T06:28:19.776Z,6.50
2023-01-21T06:30:48.419Z,7.10
2023-01-21T06:33:16.750Z,9.00
2023-01-21T06:35:44.941Z,8.50
2023-01-21T06:38:14.079Z,14.20
2023-01-21T06:40:43.583Z,9.30
2023-01-21T06:43:11.928Z,9.00
2023-01-21T06:45:40.409Z,9.20
2023-01-21T06:48:08.590Z,10.90
2023-01-21T06:50:36.974Z,9.60
2023-01-21T06:53:05.567Z,11.50
2023-01-21T06:55:34.057Z,8.10
2023-01-21T06:58:02.956Z,9.80
2023-01-21T07:00:31.643Z,7.50
2023-01-21T07:03:00.899Z,7.70
2023-01-21T07:05:29.269Z,8.30
2023-01-21T07:07:57.821Z,8.90
2023-01-21T07:10:26.508Z,10.20
2023-01-21T07:12:54.685Z,11.10
2023-01-21T07:15:22.864Z,9.90
2023-01-21T07:17:52.378Z,8.30
2023-01-21T07:20:22.812Z,8.70
2023-01-21T07:22:50.987Z,8.00
2023-01-21T07:25:19.658Z,7.80
2023-01-21T07:27:48.375Z,9.30
2023-01-21T07:30:19.412Z,8.50
2023-01-21T07:32:48.007Z,6.90
2023-01-21T07:35:16.510Z,9.10
2023-01-21T07:37:44.974Z,9.00
2023-01-21T07:40:13.787Z,8.20
2023-01-21T07:42:42.165Z,11.00
2023-01-21T07:45:11.065Z,12.40
2023-01-21T07:47:39.339Z,11.90
2023-01-21T07:50:08.971Z,9.20
2023-01-21T07:52:37.938Z,10.20
2023-01-21T07:55:08.060Z,11.30
2023-01-21T07:57:36.366Z,11.20
2023-01-21T08:00:05.244Z,14.00
2023-01-21T08:02:41.129Z,14.70
2023-01-21T08:05:10.461Z,11.90
2023-01-21T08:07:38.794Z,18.50
2023-01-21T08:10:07.957Z,12.40
2023-01-21T08:12:36.170Z,11.70
2023-01-21T08:15:05.455Z,12.90
2023-01-21T08:17:33.757Z,11.70
2023-01-21T08:20:01.944Z,13.70
2023-01-21T08:22:30.221Z,11.60
2023-01-21T08:24:58.608Z,9.40
2023-01-21T08:27:26.891Z,9.30
2023-01-21T08:29:55.314Z,13.80
2023-01-21T08:32:23.965Z,22.50
2023-01-21T08:34:52.351Z,24.70
2023-01-21T08:37:20.738Z,14.20
2023-01-21T08:39:49.420Z,10.60
2023-01-21T08:42:17.816Z,19.60
2023-01-21T08:44:46.705Z,13.10
2023-01-21T08:47:15.288Z,17.00
2023-01-21T08:49:44.702Z,16.30
2023-01-21T08:52:13.492Z,17.90
2023-01-21T08:54:42.092Z,10.70
2023-01-21T08:57:10.569Z,10.60
2023-01-21T08:59:39.158Z,9.70
2023-01-21T09:02:08.802Z,8.30
2023-01-21T09:04:37.461Z,10.10
2023-01-21T09:07:05.741Z,10.30
2023-01-21T09:09:34.743Z,14.80
2023-01-21T09:12:05.989Z,8.50
2023-01-21T09:14:34.275Z,8.00
2023-01-21T09:17:02.457Z,9.50
2023-01-21T09:19:30.741Z,14.90
2023-01-21T09:21:59.121Z,15.20
2023-01-21T09:24:28.019Z,10.90
2023-01-21T09:26:56.611Z,17.30
2023-01-21T09:29:25.196Z,10.60
2023-01-21T09:31:53.635Z,8.60
2023-01-21T09:34:21.960Z,9.10
2023-01-21T09:36:50.146Z,10.60
2023-01-21T09:39:18.431Z,9.30
2023-01-21T09:41:52.511Z,20.80
2023-01-21T09:44:29.932Z,11.00
2023-01-21T09:47:07.208Z,12.60
2023-01-21T09:49:44.506Z,10.60
2023-01-21T09:52:31.309Z,11.90
2023-01-21T09:55:01.648Z,6.80
2023-01-21T09:57:32.884Z,15.30
2023-01-21T10:00:20.211Z,6.40
2023-01-21T10:02:53.803Z,9.50
2023-01-21T10:05:24.961Z,6.80
2023-01-21T10:08:18.304Z,5.50
2023-01-21T10:11:03.782Z,6.40
2023-01-21T10:14:03.479Z,8.40
2023-01-21T10:16:38.893Z,9.80
2023-01-21T10:19:17.746Z,10.20
2023-01-21T10:21:57.199Z,7.70
2023-01-21T10:24:31.603Z,7.10
2023-01-21T10:27:00.964Z,13.10
2023-01-21T10:29:29.518Z,8.10
2023-01-21T10:32:04.132Z,5.40
2023-01-21T10:34:40.005Z,13.00
2023-01-21T10:37:37.223Z,6.00
2023-01-21T10:40:17.431Z,5.30
2023-01-21T10:43:06.551Z,7.10
2023-01-21T10:45:37.993Z,9.60
2023-01-21T10:48:28.976Z,6.10
2023-01-21T10:51:13.756Z,5.90
2023-01-21T10:53:56.966Z,8.10
2023-01-21T10:56:38.454Z,8.10
2023-01-21T10:59:12.975Z,8.00
2023-01-21T11:01:46.271Z,9.60
2023-01-21T11:07:05.303Z,9.40
2023-01-21T11:09:39.876Z,11.50
2023-01-21T11:12:12.556Z,15.00
2023-01-21T11:14:41.043Z,5.60
2023-01-21T11:17:10.347Z,11.60
2023-01-21T11:19:38.472Z,6.70
2023-01-21T11:22:12.946Z,5.80
2023-01-21T11:24:49.737Z,8.90
2023-01-21T11:27:38.507Z,6.90
2023-01-21T11:30:48.306Z,13.30
2023-01-21T11:33:19.249Z,4.70
2023-01-21T11:35:48.210Z,12.40
2023-01-21T11:38:35.401Z,7.30
2023-01-21T11:41:11.173Z,7.40
2023-01-21T11:43:47.115Z,6.00
2023-01-21T11:46:34.563Z,7.00
2023-01-21T11:49:08.521Z,5.50
2023-01-21T11:51:39.315Z,6.00
2023-01-21T11:54:18.924Z,10.50
2023-01-21T11:56:58.210Z,6.50
2023-01-21T11:59:34.349Z,7.70
2023-01-21T12:02:24.369Z,11.10
2023-01-21T12:05:21.392Z,20.80
2023-01-21T12:07:52.648Z,9.70
2023-01-21T12:10:33.305Z,18.40
2023-01-21T12:13:17.043Z,10.80
2023-01-21T12:16:16.677Z,10.80
2023-01-21T12:19:00.265Z,19.50
2023-01-21T12:21:47.065Z,13.50
2023-01-21T12:24:47.815Z,16.90
2023-01-21T12:27:46.564Z,29.90
2023-01-21T12:30:27.330Z,14.40
2023-01-21T12:33:02.071Z,36.60
2023-01-21T12:35:36.485Z,14.50
2023-01-21T12:38:14.211Z,24.00
2023-01-21T12:41:00.369Z,18.00
2023-01-21T12:43:46.764Z,23.30
2023-01-21T12:46:41.012Z,15.20
2023-01-21T12:49:25.298Z,18.70
2023-01-21T12:52:00.115Z,21.50
2023-01-21T12:54:54.395Z,30.60
2023-01-21T12:57:38.448Z,24.60
2023-01-21T13:00:29.862Z,29.60
2023-01-21T13:03:04.168Z,17.60
2023-01-21T13:06:05.301Z,24.00
2023-01-21T13:08:55.270Z,25.10
2023-01-21T13:11:33.274Z,27.30
2023-01-21T13:14:07.290Z,21.80
2023-01-21T13:16:44.310Z,22.40
2023-01-21T13:19:14.992Z,17.10
2023-01-21T13:22:14.090Z,17.40
2023-01-21T13:25:05.103Z,23.40
2023-01-21T13:27:47.698Z,21.50
2023-01-21T13:30:55.219Z,28.10
2023-01-21T13:33:47.719Z,33.00
2023-01-21T13:36:25.507Z,30.60
2023-01-21T13:39:32.780Z,27.10
2023-01-21T13:42:09.872Z,22.10
2023-01-21T13:44:52.275Z,28.10
2023-01-21T13:47:31.910Z,28.00
2023-01-21T13:50:19.900Z,25.20
2023-01-21T13:53:00.607Z,23.90
2023-01-21T13:56:04.805Z,18.20
2023-01-21T13:58:48.956Z,22.40
2023-01-21T14:01:26.543Z,31.40
2023-01-21T14:04:04.976Z,20.90
2023-01-21T14:06:49.554Z,23.40
2023-01-21T14:09:28.195Z,32.30
2023-01-21T14:12:05.525Z,31.10
2023-01-21T14:14:52.630Z,28.30
2023-01-21T14:17:59.597Z,30.20
2023-01-21T14:20:28.192Z,22.70
2023-01-21T14:23:05.474Z,28.20
2023-01-21T14:25:34.280Z,23.80
2023-01-21T14:28:26.081Z,26.00
2023-01-21T14:31:19.452Z,32.80
2023-01-21T14:34:14.016Z,24.40
2023-01-21T14:40:13.721Z,23.10
2023-01-21T14:42:43.752Z,26.90
2023-01-21T14:45:14.506Z,28.10
2023-01-21T14:47:48.906Z,33.60
2023-01-21T14:50:47.420Z,35.20
2023-01-21T14:53:23.539Z,35.90
2023-01-21T14:56:07.584Z,32.30
2023-01-21T14:58:37.280Z,42.90
2023-01-21T15:01:07.392Z,34.40
2023-01-21T15:03:48.291Z,33.50
2023-01-21T15:06:22.304Z,34.00
2023-01-21T15:08:56.630Z,57.30
2023-01-21T15:11:34.830Z,39.20
2023-01-21T15:14:12.400Z,38.00
2023-01-21T15:16:43.294Z,41.40
2023-01-21T15:19:11.748Z,46.20
2023-01-21T15:21:43.405Z,48.60
2023-01-21T15:24:30.929Z,43.90
2023-01-21T15:27:21.010Z,38.40
2023-01-21T15:29:55.327Z,43.20
2023-01-21T15:32:32.510Z,34.50
2023-01-21T15:35:05.301Z,43.00
2023-01-21T15:37:38.683Z,42.90
2023-01-21T15:40:36.860Z,33.50
2023-01-21T15:43:05.141Z,40.50
2023-01-21T15:45:49.020Z,38.90
2023-01-21T15:50:56.327Z,27.60
2023-01-21T15:53:33.982Z,28.40
2023-01-21T15:56:41.196Z,29.40
2023-01-21T15:59:26.317Z,30.50
2023-01-21T16:02:16.641Z,31.70
2023-01-21T16:04:50.000Z,28.30
2023-01-21T16:07:27.494Z,28.90
2023-01-21T16:10:04.590Z,30.30
2023-01-21T16:12:50.376Z,34.20
2023-01-21T16:15:49.043Z,35.20
2023-01-21T16:18:50.781Z,36.60
2023-01-21T16:21:29.597Z,34.40
2023-01-21T16:24:01.549Z,38.20
2023-01-21T16:26:33.104Z,39.90
2023-01-21T16:29:02.117Z,49.10
2023-01-21T16:31:30.470Z,51.60
2023-01-21T16:33:58.902Z,57.90
2023-01-21T16:36:27.067Z,57.50
2023-01-21T16:38:55.558Z,48.30
2023-01-21T16:41:25.423Z,73.20
2023-01-21T16:44:01.742Z,53.50
2023-01-21T16:46:37.790Z,52.70
2023-01-21T16:49:17.811Z,51.80
2023-01-21T16:51:56.676Z,47.00
2023-01-21T16:54:29.783Z,41.20
2023-01-21T16:57:20.977Z,41.40
2023-01-21T16:59:49.772Z,41.80
2023-01-21T17:02:24.121Z,49.30
2023-01-21T17:04:57.183Z,54.70
2023-01-21T17:07:33.744Z,73.30
2023-01-21T17:10:17.601Z,73.70
2023-01-21T17:15:36.315Z,54.60
2023-01-21T17:18:21.177Z,41.30
2023-01-21T17:20:53.205Z,39.90
2023-01-21T17:23:25.784Z,49.40
2023-01-21T17:26:23.312Z,35.00
2023-01-21T17:29:09.098Z,46.30
2023-01-21T17:31:42.993Z,40.20
2023-01-21T17:34:11.179Z,44.00
2023-01-21T17:36:40.875Z,37.60
2023-01-21T17:39:10.885Z,32.00
2023-01-21T17:41:46.276Z,36.60
2023-01-21T17:44:21.211Z,45.80
2023-01-21T17:46:52.950Z,37.30
2023-01-21T17:49:26.549Z,40.90
2023-01-21T17:51:55.665Z,33.00
2023-01-21T17:54:26.623Z,32.70
2023-01-21T17:56:58.161Z,32.60
2023-01-21T17:59:41.176Z,38.20
2023-01-21T18:02:12.946Z,49.90
2023-01-21T18:04:42.142Z,46.10
2023-01-21T18:07:23.210Z,36.50
2023-01-21T18:09:53.321Z,43.00
2023-01-21T18:12:22.117Z,41.70
2023-01-21T18:14:50.413Z,39.80
2023-01-21T18:17:22.274Z,37.60
2023-01-21T18:19:51.241Z,38.20
2023-01-21T18:22:27.133Z,46.20
2023-01-21T18:24:55.820Z,38.10
2023-01-21T18:27:26.194Z,50.10
2023-01-21T18:29:54.842Z,49.20
2023-01-21T18:32:23.228Z,51.10
2023-01-21T18:34:51.638Z,42.10
2023-01-21T18:37:20.673Z,39.50
2023-01-21T18:39:48.992Z,38.20
2023-01-21T18:42:18.205Z,37.30
2023-01-21T18:44:46.474Z,39.10
2023-01-21T18:47:18.246Z,37.80
2023-01-21T18:49:49.514Z,43.60
2023-01-21T18:52:19.895Z,41.10
2023-01-21T18:54:48.307Z,43.60
2023-01-21T18:57:22.828Z,42.00
2023-01-21T18:59:51.426Z,37.30
2023-01-21T19:02:21.462Z,42.30
2023-01-21T19:04:50.026Z,40.90
2023-01-21T19:07:23.967Z,35.50
2023-01-21T19:09:52.422Z,36.70
2023-01-21T19:12:21.443Z,33.30
2023-01-21T19:14:49.622Z,33.20
2023-01-21T19:17:30.168Z,35.90
2023-01-21T19:19:58.751Z,32.60
2023-01-21T19:22:27.246Z,38.80
2023-01-21T19:24:55.635Z,34.90
2023-01-21T19:27:30.760Z,42.00
2023-01-21T19:29:59.350Z,45.80
2023-01-21T19:32:27.640Z,52.40
2023-01-21T19:34:57.909Z,39.80
2023-01-21T19:37:26.255Z,34.50
2023-01-21T19:39:54.939Z,37.60
2023-01-21T19:42:23.320Z,37.10
2023-01-21T19:44:51.809Z,37.80
2023-01-21T19:47:28.377Z,36.10
2023-01-21T19:49:56.968Z,41.40
2023-01-21T19:52:25.355Z,39.40
2023-01-21T19:54:55.168Z,37.80
2023-01-21T19:57:23.762Z,51.80
2023-01-21T19:59:53.475Z,43.60
2023-01-21T20:02:21.861Z,46.60
2023-01-21T20:04:50.550Z,43.90
2023-01-21T20:07:20.670Z,49.00
2023-01-21T20:09:49.667Z,38.20
2023-01-21T20:12:17.950Z,44.00
2023-01-21T20:14:46.131Z,42.80
2023-01-21T20:17:14.517Z,46.30
2023-01-21T20:19:42.807Z,50.30
2023-01-21T20:22:12.817Z,51.80
2023-01-21T20:24:41.423Z,50.50
2023-01-21T20:27:14.263Z,48.40
2023-01-21T20:29:49.630Z,61.00
2023-01-21T20:32:24.569Z,57.10
2023-01-21T20:34:52.757Z,60.40
2023-01-21T20:37:20.943Z,54.20
2023-01-21T20:39:49.527Z,52.50
2023-01-21T20:42:17.732Z,44.30
2023-01-21T20:44:46.088Z,48.30
2023-01-21T20:47:14.616Z,58.30
2023-01-21T20:49:43.778Z,54.50
2023-01-21T20:52:11.954Z,48.60
2023-01-21T20:54:40.541Z,51.00
2023-01-21T20:57:14.865Z,48.20
2023-01-21T20:59:43.246Z,49.60
2023-01-21T21:02:12.466Z,49.80
2023-01-21T21:04:41.241Z,45.20
2023-01-21T21:07:16.194Z,43.10
2023-01-21T21:09:44.974Z,45.90
2023-01-21T21:12:13.256Z,43.90
2023-01-21T21:14:41.636Z,54.70
2023-01-21T21:17:12.366Z,47.30
2023-01-21T21:19:40.667Z,44.80
2023-01-21T21:22:08.842Z,42.10
2023-01-21T21:24:37.533Z,40.00
2023-01-21T21:27:05.915Z,49.60
2023-01-21T21:29:34.296Z,44.70
2023-01-21T21:32:02.944Z,45.40
2023-01-21T21:34:31.578Z,46.20
2023-01-21T21:36:59.965Z,55.50
2023-01-21T21:39:28.868Z,66.30
2023-01-21T21:42:16.379Z,68.00
2023-01-21T21:44:44.965Z,65.80
2023-01-21T21:47:31.975Z,65.80
2023-01-21T21:50:00.358Z,60.40
2023-01-21T21:52:28.745Z,56.60
2023-01-21T21:54:57.134Z,59.50
2023-01-21T21:57:25.512Z,64.30
2023-01-21T21:59:54.001Z,58.40
2023-01-21T22:02:22.462Z,59.50
2023-01-21T22:04:55.072Z,57.60
2023-01-21T22:07:23.654Z,54.40
2023-01-21T22:09:52.243Z,53.60
2023-01-21T22:12:20.525Z,53.60
2023-01-21T22:14:48.722Z,53.20
2023-01-21T22:17:17.090Z,62.60
2023-01-21T22:19:45.389Z,49.40
2023-01-21T22:22:13.759Z,59.50
2023-01-21T22:24:44.394Z,54.60
2023-01-21T22:27:13.392Z,58.20
2023-01-21T22:29:41.782Z,53.50
2023-01-21T22:32:10.879Z,49.90
2023-01-21T22:34:39.165Z,54.00
2023-01-21T22:37:07.746Z,56.40
2023-01-21T22:39:36.130Z,55.80
2023-01-21T22:42:05.247Z,48.10
2023-01-21T22:44:33.514Z,46.40
2023-01-21T22:47:02.104Z,47.40
2023-01-21T22:49:30.285Z,45.30
2023-01-21T22:51:58.771Z,44.10
2023-01-21T22:54:27.110Z,50.90
2023-01-21T22:56:55.857Z,45.60
2023-01-21T22:59:24.436Z,47.20
2023-01-21T23:01:52.715Z,47.00
2023-01-21T23:04:21.213Z,44.90
2023-01-21T23:06:54.893Z,42.20
2023-01-21T23:09:23.499Z,45.70
2023-01-21T23:11:52.918Z,53.00
2023-01-21T23:14:21.187Z,45.20
2023-01-21T23:16:52.643Z,53.20
2023-01-21T23:19:21.028Z,50.90
2023-01-21T23:21:49.217Z,54.80
2023-01-21T23:24:18.518Z,51.90
2023-01-21T23:26:47.407Z,52.70
2023-01-21T23:29:15.590Z,50.10
2023-01-21T23:31:44.374Z,48.90
2023-01-21T23:34:14.571Z,51.80
2023-01-21T23:36:42.992Z,55.30
2023-01-21T23:39:11.581Z,52.40
2023-01-21T23:41:40.075Z,51.20
2023-01-21T23:44:10.640Z,66.30
2023-01-21T23:46:39.297Z,50.10
2023-01-21T23:49:08.246Z,51.30
2023-01-21T23:51:36.474Z,55.80
2023-01-21T23:54:05.058Z,51.70
2023-01-21T23:56:33.457Z,53.80
2023-01-21T23:59:01.854Z,52.00
